TimeCDT,TemperatureF,Dew PointF,Humidity,Sea Level PressureIn,VisibilityMPH,Wind Direction,Wind SpeedMPH,Gust SpeedMPH,PrecipitationIn,Events,Conditions,WindDirDegrees,DateUTC
12:15 AM,75.4,71.2,87,30.23,7.0,South,4.6,-,N/A,,Clear,170,2013-08-26 05:15:00
12:35 AM,75.6,71.6,87,30.22,7.0,South,5.8,-,N/A,,Clear,170,2013-08-26 05:35:00
12:55 AM,75.7,71.8,87,30.22,7.0,South,5.8,-,N/A,,Clear,180,2013-08-26 05:55:00
1:15 AM,75.7,71.8,87,30.22,7.0,South,4.6,-,N/A,,Clear,180,2013-08-26 06:15:00
1:35 AM,75.2,71.6,89,30.22,5.0,South,4.6,-,N/A,,Clear,180,2013-08-26 06:35:00
1:55 AM,74.8,71.6,90,30.21,5.0,South,3.5,-,N/A,,Clear,180,2013-08-26 06:55:00
2:15 AM,74.7,71.6,90,30.21,5.0,South,3.5,-,N/A,,Clear,170,2013-08-26 07:15:00
2:35 AM,74.5,71.6,91,30.21,4.0,South,3.5,-,N/A,,Clear,170,2013-08-26 07:35:00
2:55 AM,74.7,71.8,91,30.21,4.0,SSE,3.5,-,N/A,,Clear,160,2013-08-26 07:55:00
3:15 AM,74.3,71.6,91,30.21,4.0,Calm,Calm,-,N/A,,Clear,0,2013-08-26 08:15:00
3:35 AM,73.9,71.6,92,30.21,3.0,South,3.5,-,N/A,,Clear,170,2013-08-26 08:35:00
3:55 AM,73.8,71.6,93,30.21,3.0,SSE,3.5,-,N/A,,Clear,160,2013-08-26 08:55:00
4:15 AM,73.6,71.2,92,30.21,2.5,Calm,Calm,-,N/A,,Clear,0,2013-08-26 09:15:00
4:35 AM,72.3,70.0,92,30.21,2.0,Calm,Calm,-,N/A,,Clear,0,2013-08-26 09:35:00
4:55 AM,73.0,70.9,93,30.21,2.0,Calm,Calm,-,N/A,,Clear,0,2013-08-26 09:55:00
5:15 AM,73.4,71.2,93,30.21,2.0,South,3.5,-,N/A,,Clear,190,2013-08-26 10:15:00
5:35 AM,73.6,71.6,93,30.22,2.5,South,3.5,-,N/A,,Clear,190,2013-08-26 10:35:00
5:55 AM,74.7,72.5,93,30.22,3.0,SSW,3.5,-,N/A,,Clear,200,2013-08-26 10:55:00
6:15 AM,74.3,71.8,92,30.23,3.0,South,4.6,-,N/A,,Clear,190,2013-08-26 11:15:00
6:35 AM,74.7,72.1,92,30.23,2.0,South,4.6,-,N/A,,Clear,190,2013-08-26 11:35:00
6:55 AM,75.4,72.9,92,30.23,2.5,South,4.6,-,N/A,,Clear,190,2013-08-26 11:55:00
7:15 AM,76.1,73.4,91,30.23,2.5,South,4.6,-,N/A,,Clear,190,2013-08-26 12:15:00
7:35 AM,77.0,73.6,89,30.24,3.0,SSW,4.6,-,N/A,,Clear,210,2013-08-26 12:35:00
7:55 AM,77.5,73.9,89,30.24,4.0,SSW,6.9,-,N/A,,Clear,200,2013-08-26 12:55:00
8:15 AM,78.8,74.3,86,30.24,4.0,SSW,8.1,-,N/A,,Haze,210,2013-08-26 13:15:00
8:35 AM,80.1,74.5,83,30.24,5.0,SSW,9.2,-,N/A,,Haze,210,2013-08-26 13:35:00
8:55 AM,81.5,75.0,81,30.24,5.0,SSW,8.1,-,N/A,,Haze,210,2013-08-26 13:55:00
9:15 AM,82.8,75.0,77,30.24,7.0,SW,6.9,-,N/A,,Clear,230,2013-08-26 14:15:00
9:35 AM,84.2,75.2,74,30.24,7.0,SW,8.1,-,N/A,,Clear,220,2013-08-26 14:35:00
9:55 AM,85.1,74.7,71,30.24,10.0,WSW,9.2,-,N/A,,Clear,240,2013-08-26 14:55:00
10:15 AM,86.0,75.0,70,30.24,10.0,SW,8.1,-,N/A,,Clear,220,2013-08-26 15:15:00
10:35 AM,87.1,75.0,67,30.23,10.0,WSW,6.9,-,N/A,,Clear,240,2013-08-26 15:35:00
10:55 AM,88.0,75.2,66,30.23,10.0,SW,8.1,-,N/A,,Clear,220,2013-08-26 15:55:00
11:15 AM,88.3,75.0,65,30.22,10.0,SSW,5.8,-,N/A,,Clear,210,2013-08-26 16:15:00
11:35 AM,88.2,75.0,65,30.22,10.0,WSW,5.8,-,N/A,,Clear,240,2013-08-26 16:35:00
11:55 AM,88.7,74.7,63,30.22,10.0,SW,5.8,-,N/A,,Clear,220,2013-08-26 16:55:00
12:15 PM,90.7,74.5,59,30.21,10.0,SW,3.5,-,N/A,,Clear,220,2013-08-26 17:15:00
12:35 PM,90.9,73.4,56,30.20,10.0,South,4.6,-,N/A,,Clear,180,2013-08-26 17:35:00
12:55 PM,90.3,73.4,57,30.20,10.0,SW,6.9,-,N/A,,Clear,220,2013-08-26 17:55:00
1:15 PM,92.1,72.1,52,30.19,10.0,SSW,8.1,-,N/A,,Clear,210,2013-08-26 18:15:00
1:35 PM,91.9,70.3,49,30.19,10.0,Calm,Calm,-,N/A,,Clear,0,2013-08-26 18:35:00
1:55 PM,-9999,-9999,N/A,30.17,-9999.0,North,-9999.0,-,N/A,,Unknown,0,2013-08-26 18:55:00
2:15 PM,93.7,68.2,43,30.17,10.0,SSW,6.9,-,N/A,,Clear,210,2013-08-26 19:15:00
2:35 PM,93.7,67.6,42,-9999,-9999.0,North,-9999.0,-,N/A,,Unknown,0,2013-08-26 19:35:00
2:55 PM,94.1,67.6,42,30.14,-9999.0,SSW,6.9,-,N/A,,Unknown,200,2013-08-26 19:55:00
3:15 PM,93.6,67.5,42,30.14,10.0,South,5.8,-,N/A,,Unknown,190,2013-08-26 20:15:00
3:35 PM,94.1,66.9,41,30.13,-9999.0,Calm,Calm,-,N/A,,Unknown,0,2013-08-26 20:35:00
3:55 PM,94.3,65.5,39,30.13,-9999.0,SW,8.1,-,N/A,,Unknown,230,2013-08-26 20:55:00
4:15 PM,94.3,67.5,41,30.12,-9999.0,North,-9999.0,-,N/A,,Unknown,0,2013-08-26 21:15:00
4:35 PM,93.2,68.2,44,30.12,-9999.0,South,6.9,-,N/A,,Unknown,180,2013-08-26 21:35:00
4:55 PM,93.0,70.5,48,30.11,10.0,South,8.1,-,N/A,,Unknown,170,2013-08-26 21:55:00
5:15 PM,91.8,72.1,52,30.11,10.0,South,6.9,-,N/A,,Unknown,170,2013-08-26 22:15:00
5:35 PM,90.7,71.8,54,30.11,10.0,South,6.9,-,N/A,,Clear,190,2013-08-26 22:35:00
5:55 PM,89.6,71.6,55,30.11,10.0,South,5.8,-,N/A,,Clear,180,2013-08-26 22:55:00
6:15 PM,88.3,73.0,60,30.10,10.0,South,5.8,-,N/A,,Clear,180,2013-08-26 23:15:00
6:35 PM,87.3,73.6,64,30.10,10.0,South,4.6,-,N/A,,Clear,180,2013-08-26 23:35:00
6:55 PM,86.2,73.8,66,30.10,10.0,South,5.8,-,N/A,,Clear,180,2013-08-26 23:55:00
7:15 PM,84.4,73.6,70,30.10,10.0,South,4.6,-,N/A,,Clear,170,2013-08-27 00:15:00
7:35 PM,82.9,73.4,73,30.10,10.0,South,5.8,-,N/A,,Clear,180,2013-08-27 00:35:00
7:55 PM,81.5,73.0,75,30.10,10.0,South,5.8,-,N/A,,Clear,170,2013-08-27 00:55:00
8:15 PM,81.5,72.9,75,30.10,10.0,South,5.8,-,N/A,,Clear,170,2013-08-27 01:15:00
8:35 PM,80.4,72.9,78,30.10,7.0,South,5.8,-,N/A,,Clear,170,2013-08-27 01:35:00
8:55 PM,80.1,73.0,79,30.11,10.0,South,5.8,-,N/A,,Clear,180,2013-08-27 01:55:00
9:15 PM,80.2,73.2,79,30.11,10.0,South,5.8,-,N/A,,Clear,180,2013-08-27 02:15:00
9:35 PM,79.9,73.0,80,30.10,10.0,South,5.8,-,N/A,,Clear,180,2013-08-27 02:35:00
9:55 PM,79.7,73.0,80,30.10,10.0,South,6.9,-,N/A,,Clear,180,2013-08-27 02:55:00
10:15 PM,79.7,73.2,80,30.10,10.0,South,5.8,-,N/A,,Clear,180,2013-08-27 03:15:00
10:35 PM,80.1,73.2,80,30.10,10.0,South,6.9,-,N/A,,Clear,180,2013-08-27 03:35:00
10:55 PM,79.7,73.0,80,30.10,10.0,South,5.8,-,N/A,,Clear,180,2013-08-27 03:55:00
11:15 PM,78.8,72.9,82,30.10,10.0,South,5.8,-,N/A,,Clear,190,2013-08-27 04:15:00
11:35 PM,79.2,73.0,81,30.10,10.0,South,5.8,-,N/A,,Clear,190,2013-08-27 04:35:00
11:55 PM,79.7,73.4,81,30.11,10.0,SSW,5.8,-,N/A,,Clear,200,2013-08-27 04:55:00